sensor_id;sensor_type;location;lat;lon;timestamp;pressure;altitude;pressure_sealevel;temperature;humidity
74542;BME280;63015;45.378;20.360;2023-07-20T00:01:45;100186.22;;;21.84;68.17
74542;BME280;63015;45.378;20.360;2023-07-20T00:03:45;100193.38;;;21.82;68.06
74542;BME280;63015;45.378;20.360;2023-07-20T00:05:55;100195.34;;;21.79;68.27
74542;BME280;63015;45.378;20.360;2023-07-20T00:07:55;100191.91;;;21.59;69.45
74542;BME280;63015;45.378;20.360;2023-07-20T00:09:57;100190.28;;;21.57;69.20
74542;BME280;63015;45.378;20.360;2023-07-20T00:11:57;100185.09;;;21.54;69.21
74542;BME280;63015;45.378;20.360;2023-07-20T00:14:00;100174.19;;;21.60;68.83
74542;BME280;63015;45.378;20.360;2023-07-20T00:16:01;100173.13;;;21.64;68.61
74542;BME280;63015;45.378;20.360;2023-07-20T00:18:01;100168.75;;;21.63;68.74
74542;BME280;63015;45.378;20.360;2023-07-20T00:20:02;100162.75;;;21.59;69.00
74542;BME280;63015;45.378;20.360;2023-07-20T00:22:05;100166.25;;;21.60;68.70
74542;BME280;63015;45.378;20.360;2023-07-20T00:24:06;100168.97;;;21.58;69.14
74542;BME280;63015;45.378;20.360;2023-07-20T00:26:06;100169.69;;;21.62;68.92
74542;BME280;63015;45.378;20.360;2023-07-20T00:28:07;100171.50;;;21.61;68.67
74542;BME280;63015;45.378;20.360;2023-07-20T00:30:08;100176.81;;;21.61;68.56
74542;BME280;63015;45.378;20.360;2023-07-20T00:32:09;100173.13;;;21.64;68.30
74542;BME280;63015;45.378;20.360;2023-07-20T00:34:09;100172.50;;;21.59;68.62
74542;BME280;63015;45.378;20.360;2023-07-20T00:36:10;100171.56;;;21.60;68.47
74542;BME280;63015;45.378;20.360;2023-07-20T00:38:10;100164.59;;;21.57;68.48
74542;BME280;63015;45.378;20.360;2023-07-20T00:40:12;100161.91;;;21.59;68.61
74542;BME280;63015;45.378;20.360;2023-07-20T00:42:12;100157.63;;;21.56;68.56
74542;BME280;63015;45.378;20.360;2023-07-20T00:44:13;100158.47;;;21.57;68.55
74542;BME280;63015;45.378;20.360;2023-07-20T00:46:14;100156.66;;;21.57;68.40
74542;BME280;63015;45.378;20.360;2023-07-20T00:48:15;100166.56;;;21.54;68.60
74542;BME280;63015;45.378;20.360;2023-07-20T00:50:17;100166.56;;;21.54;68.28
74542;BME280;63015;45.378;20.360;2023-07-20T00:52:21;100167.41;;;21.54;68.57
74542;BME280;63015;45.378;20.360;2023-07-20T00:54:23;100173.53;;;21.56;68.67
74542;BME280;63015;45.378;20.360;2023-07-20T00:56:23;100166.41;;;21.57;68.33
74542;BME280;63015;45.378;20.360;2023-07-20T00:58:24;100154.88;;;21.58;68.24
74542;BME280;63015;45.378;20.360;2023-07-20T01:00:25;100149.66;;;21.56;68.38
74542;BME280;63015;45.378;20.360;2023-07-20T01:02:26;100150.44;;;21.58;68.47
74542;BME280;63015;45.378;20.360;2023-07-20T01:04:26;100146.13;;;21.56;68.36
74542;BME280;63015;45.378;20.360;2023-07-20T01:08:51;100135.81;;;21.49;68.77
74542;BME280;63015;45.378;20.360;2023-07-20T01:11:06;100139.09;;;21.37;69.56
74542;BME280;63015;45.378;20.360;2023-07-20T01:13:10;100137.38;;;21.36;68.95
74542;BME280;63015;45.378;20.360;2023-07-20T01:15:12;100138.09;;;21.40;68.91
74542;BME280;63015;45.378;20.360;2023-07-20T01:17:13;100126.56;;;21.41;68.70
74542;BME280;63015;45.378;20.360;2023-07-20T01:19:14;100119.63;;;21.38;68.76
74542;BME280;63015;45.378;20.360;2023-07-20T01:21:22;100124.97;;;21.36;69.39
74542;BME280;63015;45.378;20.360;2023-07-20T01:23:41;100123.03;;;21.40;69.12
74542;BME280;63015;45.378;20.360;2023-07-20T01:33:19;100109.88;;;21.39;68.59
74542;BME280;63015;45.378;20.360;2023-07-20T01:35:23;100114.38;;;21.36;68.59
74542;BME280;63015;45.378;20.360;2023-07-20T01:37:24;100105.78;;;21.31;69.14
74542;BME280;63015;45.378;20.360;2023-07-20T01:39:28;100106.69;;;21.32;69.08
74542;BME280;63015;45.378;20.360;2023-07-20T01:41:29;100110.09;;;21.34;68.73
74542;BME280;63015;45.378;20.360;2023-07-20T01:43:29;100104.88;;;21.32;68.58
74542;BME280;63015;45.378;20.360;2023-07-20T01:45:30;100117.41;;;21.29;69.22
74542;BME280;63015;45.378;20.360;2023-07-20T01:47:31;100113.00;;;21.29;68.86
74542;BME280;63015;45.378;20.360;2023-07-20T01:49:32;100107.69;;;21.29;68.91
74542;BME280;63015;45.378;20.360;2023-07-20T01:51:33;100101.38;;;21.32;68.68
74542;BME280;63015;45.378;20.360;2023-07-20T01:53:34;100105.66;;;21.34;68.54
74542;BME280;63015;45.378;20.360;2023-07-20T01:55:34;100096.78;;;21.35;68.44
74542;BME280;63015;45.378;20.360;2023-07-20T01:57:35;100099.56;;;21.32;68.33
74542;BME280;63015;45.378;20.360;2023-07-20T01:59:36;100098.63;;;21.33;68.57
74542;BME280;63015;45.378;20.360;2023-07-20T02:01:37;100106.50;;;21.35;68.38
74542;BME280;63015;45.378;20.360;2023-07-20T02:03:37;100114.38;;;21.36;68.15
74542;BME280;63015;45.378;20.360;2023-07-20T02:05:38;100106.38;;;21.38;68.08
74542;BME280;63015;45.378;20.360;2023-07-20T02:07:39;100114.22;;;21.40;68.08
74542;BME280;63015;45.378;20.360;2023-07-20T02:09:39;100112.28;;;21.43;67.90
74542;BME280;63015;45.378;20.360;2023-07-20T02:11:42;100109.78;;;21.40;68.09
74542;BME280;63015;45.378;20.360;2023-07-20T02:13:42;100118.53;;;21.42;68.18
74542;BME280;63015;45.378;20.360;2023-07-20T02:15:43;100113.94;;;21.46;68.11
74542;BME280;63015;45.378;20.360;2023-07-20T02:17:44;100129.03;;;21.44;67.99
74542;BME280;63015;45.378;20.360;2023-07-20T02:19:45;100128.34;;;21.40;68.21
74542;BME280;63015;45.378;20.360;2023-07-20T02:21:46;100123.81;;;21.42;68.06
74542;BME280;63015;45.378;20.360;2023-07-20T02:23:46;100112.44;;;21.40;68.21
74542;BME280;63015;45.378;20.360;2023-07-20T02:25:47;100108.22;;;21.36;68.44
74542;BME280;63015;45.378;20.360;2023-07-20T02:27:48;100100.97;;;21.40;68.03
74542;BME280;63015;45.378;20.360;2023-07-20T02:29:48;100105.41;;;21.39;67.92
74542;BME280;63015;45.378;20.360;2023-07-20T02:31:50;100099.09;;;21.42;67.89
74542;BME280;63015;45.378;20.360;2023-07-20T02:33:51;100092.94;;;21.41;67.94
74542;BME280;63015;45.378;20.360;2023-07-20T02:35:52;100093.78;;;21.42;67.67
74542;BME280;63015;45.378;20.360;2023-07-20T02:37:52;100095.16;;;21.33;67.92
74542;BME280;63015;45.378;20.360;2023-07-20T02:39:53;100105.97;;;21.28;68.02
74542;BME280;63015;45.378;20.360;2023-07-20T02:41:54;100112.38;;;21.24;68.54
74542;BME280;63015;45.378;20.360;2023-07-20T02:43:55;100112.28;;;21.26;68.10
74542;BME280;63015;45.378;20.360;2023-07-20T02:45:57;100113.47;;;21.20;68.61
74542;BME280;63015;45.378;20.360;2023-07-20T02:47:57;100129.19;;;21.23;68.25
74542;BME280;63015;45.378;20.360;2023-07-20T02:49:58;100131.91;;;21.22;68.87
74542;BME280;63015;45.378;20.360;2023-07-20T02:51:58;100139.78;;;21.23;68.50
74542;BME280;63015;45.378;20.360;2023-07-20T02:53:59;100138.06;;;21.22;68.34
74542;BME280;63015;45.378;20.360;2023-07-20T02:56:00;100147.66;;;21.25;68.44
74542;BME280;63015;45.378;20.360;2023-07-20T02:58:01;100146.66;;;21.27;68.30
74542;BME280;63015;45.378;20.360;2023-07-20T03:00:03;100136.91;;;21.28;68.28
74542;BME280;63015;45.378;20.360;2023-07-20T03:02:06;100145.63;;;21.30;68.19
74542;BME280;63015;45.378;20.360;2023-07-20T03:04:10;100137.59;;;21.31;68.20
74542;BME280;63015;45.378;20.360;2023-07-20T03:06:11;100141.97;;;21.32;67.89
74542;BME280;63015;45.378;20.360;2023-07-20T03:08:12;100148.38;;;21.28;68.21
74542;BME280;63015;45.378;20.360;2023-07-20T03:10:12;100165.19;;;21.27;68.63
74542;BME280;63015;45.378;20.360;2023-07-20T03:12:13;100190.69;;;21.30;68.45
74542;BME280;63015;45.378;20.360;2023-07-20T03:14:13;100204.56;;;21.17;69.51
74542;BME280;63015;45.378;20.360;2023-07-20T03:16:17;100228.81;;;21.08;70.07
74542;BME280;63015;45.378;20.360;2023-07-20T03:18:18;100255.19;;;20.92;70.95
74542;BME280;63015;45.378;20.360;2023-07-20T03:20:19;100264.28;;;20.66;72.14
74542;BME280;63015;45.378;20.360;2023-07-20T03:22:20;100275.16;;;20.80;71.33
74542;BME280;63015;45.378;20.360;2023-07-20T03:24:21;100274.69;;;20.70;71.78
74542;BME280;63015;45.378;20.360;2023-07-20T03:26:24;100263.75;;;20.78;70.87
74542;BME280;63015;45.378;20.360;2023-07-20T03:28:25;100266.56;;;20.75;70.89
74542;BME280;63015;45.378;20.360;2023-07-20T03:30:26;100256.94;;;20.92;70.05
74542;BME280;63015;45.378;20.360;2023-07-20T03:32:27;100262.78;;;21.00;69.60
74542;BME280;63015;45.378;20.360;2023-07-20T03:34:27;100275.00;;;21.02;69.70
74542;BME280;63015;45.378;20.360;2023-07-20T03:36:28;100280.22;;;21.04;69.54
74542;BME280;63015;45.378;20.360;2023-07-20T03:38:29;100278.28;;;20.89;70.32
74542;BME280;63015;45.378;20.360;2023-07-20T03:40:29;100275.72;;;20.87;70.44
74542;BME280;63015;45.378;20.360;2023-07-20T03:42:30;100274.72;;;20.90;70.50
74542;BME280;63015;45.378;20.360;2023-07-20T03:44:31;100270.78;;;20.98;69.95
74542;BME280;63015;45.378;20.360;2023-07-20T03:46:32;100283.16;;;20.98;70.56
74542;BME280;63015;45.378;20.360;2023-07-20T03:48:34;100282.81;;;21.06;69.94
74542;BME280;63015;45.378;20.360;2023-07-20T03:50:35;100278.28;;;20.89;71.23
74542;BME280;63015;45.378;20.360;2023-07-20T03:52:36;100272.56;;;20.98;71.09
74542;BME280;63015;45.378;20.360;2023-07-20T03:54:36;100279.59;;;20.99;70.94
74542;BME280;63015;45.378;20.360;2023-07-20T03:56:37;100281.22;;;21.01;70.91
74542;BME280;63015;45.378;20.360;2023-07-20T03:58:38;100299.50;;;21.08;70.92
74542;BME280;63015;45.378;20.360;2023-07-20T04:00:38;100300.13;;;21.13;70.97
74542;BME280;63015;45.378;20.360;2023-07-20T04:02:40;100294.63;;;21.17;70.91
74542;BME280;63015;45.378;20.360;2023-07-20T04:04:41;100290.47;;;21.31;70.75
74542;BME280;63015;45.378;20.360;2023-07-20T04:06:41;100302.78;;;21.13;72.31
74542;BME280;63015;45.378;20.360;2023-07-20T04:08:44;100297.94;;;21.23;71.88
74542;BME280;63015;45.378;20.360;2023-07-20T04:10:47;100296.34;;;21.18;72.32
74542;BME280;63015;45.378;20.360;2023-07-20T04:12:48;100302.78;;;21.13;72.85
74542;BME280;63015;45.378;20.360;2023-07-20T04:14:49;100298.06;;;21.00;73.65
74542;BME280;63015;45.378;20.360;2023-07-20T04:16:49;100293.56;;;21.02;73.85
74542;BME280;63015;45.378;20.360;2023-07-20T04:18:51;100288.97;;;21.25;72.49
74542;BME280;63015;45.378;20.360;2023-07-20T04:20:52;100278.78;;;21.16;73.21
74542;BME280;63015;45.378;20.360;2023-07-20T04:23:17;100284.31;;;21.11;73.95
74542;BME280;63015;45.378;20.360;2023-07-20T04:25:18;100276.41;;;21.10;74.29
74542;BME280;63015;45.378;20.360;2023-07-20T04:27:19;100280.78;;;20.92;75.24
74542;BME280;63015;45.378;20.360;2023-07-20T04:29:20;100276.94;;;21.18;74.70
74542;BME280;63015;45.378;20.360;2023-07-20T04:31:20;100278.84;;;21.33;73.79
74542;BME280;63015;45.378;20.360;2023-07-20T04:33:21;100284.00;;;21.56;73.40
74542;BME280;63015;45.378;20.360;2023-07-20T04:37:49;100276.88;;;21.93;71.88
74542;BME280;63015;45.378;20.360;2023-07-20T04:39:52;100275.59;;;22.17;71.36
74542;BME280;63015;45.378;20.360;2023-07-20T04:41:53;100277.63;;;22.30;71.02
74542;BME280;63015;45.378;20.360;2023-07-20T04:43:54;100272.72;;;22.40;70.65
74542;BME280;63015;45.378;20.360;2023-07-20T04:46:00;100268.97;;;22.44;70.52
74542;BME280;63015;45.378;20.360;2023-07-20T04:48:04;100277.09;;;22.41;70.42
74542;BME280;63015;45.378;20.360;2023-07-20T04:50:09;100275.84;;;22.48;70.11
74542;BME280;63015;45.378;20.360;2023-07-20T04:52:10;100271.84;;;22.57;69.78
74542;BME280;63015;45.378;20.360;2023-07-20T04:54:11;100273.38;;;22.61;69.42
74542;BME280;63015;45.378;20.360;2023-07-20T04:56:14;100274.09;;;22.64;69.63
74542;BME280;63015;45.378;20.360;2023-07-20T04:58:14;100274.69;;;22.70;69.40
74542;BME280;63015;45.378;20.360;2023-07-20T05:00:15;100269.44;;;22.68;69.27
74542;BME280;63015;45.378;20.360;2023-07-20T05:02:17;100260.44;;;22.55;69.95
74542;BME280;63015;45.378;20.360;2023-07-20T05:04:18;100270.63;;;22.62;69.67
74542;BME280;63015;45.378;20.360;2023-07-20T05:06:19;100269.69;;;22.63;69.64
74542;BME280;63015;45.378;20.360;2023-07-20T05:08:19;100279.63;;;22.60;69.83
74542;BME280;63015;45.378;20.360;2023-07-20T05:10:23;100282.16;;;22.45;70.37
74542;BME280;63015;45.378;20.360;2023-07-20T05:12:24;100276.28;;;22.56;69.90
74542;BME280;63015;45.378;20.360;2023-07-20T05:14:25;100271.84;;;22.57;69.97
74542;BME280;63015;45.378;20.360;2023-07-20T05:16:26;100272.84;;;22.54;70.12
74542;BME280;63015;45.378;20.360;2023-07-20T05:18:29;100269.66;;;22.47;70.53
74542;BME280;63015;45.378;20.360;2023-07-20T05:20:29;100282.41;;;22.41;70.62
74542;BME280;63015;45.378;20.360;2023-07-20T05:22:32;100275.38;;;22.40;70.50
74542;BME280;63015;45.378;20.360;2023-07-20T05:24:32;100281.75;;;22.36;70.31
74542;BME280;63015;45.378;20.360;2023-07-20T05:26:33;100284.81;;;22.45;69.93
74542;BME280;63015;45.378;20.360;2023-07-20T05:28:34;100280.66;;;22.40;70.17
74542;BME280;63015;45.378;20.360;2023-07-20T05:30:35;100287.63;;;22.42;70.30
74542;BME280;63015;45.378;20.360;2023-07-20T05:32:35;100279.50;;;22.45;70.28
74542;BME280;63015;45.378;20.360;2023-07-20T05:34:36;100286.44;;;22.30;71.19
74542;BME280;63015;45.378;20.360;2023-07-20T05:36:37;100283.72;;;22.14;72.17
74542;BME280;63015;45.378;20.360;2023-07-20T05:39:08;100277.63;;;22.12;71.87
74542;BME280;63015;45.378;20.360;2023-07-20T05:41:09;100278.72;;;22.08;72.23
74542;BME280;63015;45.378;20.360;2023-07-20T05:43:11;100283.16;;;22.25;71.45
74542;BME280;63015;45.378;20.360;2023-07-20T05:45:12;100279.81;;;22.22;71.90
74542;BME280;63015;45.378;20.360;2023-07-20T05:47:12;100276.22;;;22.23;72.19
74542;BME280;63015;45.378;20.360;2023-07-20T05:49:13;100273.75;;;22.20;72.00
74542;BME280;63015;45.378;20.360;2023-07-20T05:51:14;100266.22;;;22.28;71.94
74542;BME280;63015;45.378;20.360;2023-07-20T05:53:14;100266.94;;;22.31;71.81
74542;BME280;63015;45.378;20.360;2023-07-20T05:55:15;100260.13;;;22.43;71.47
74542;BME280;63015;45.378;20.360;2023-07-20T05:57:15;100262.03;;;22.41;71.77
74542;BME280;63015;45.378;20.360;2023-07-20T05:59:16;100251.25;;;22.44;71.73
74542;BME280;63015;45.378;20.360;2023-07-20T06:01:17;100237.97;;;22.44;71.32
74542;BME280;63015;45.378;20.360;2023-07-20T06:03:19;100242.00;;;22.52;71.52
74542;BME280;63015;45.378;20.360;2023-07-20T06:05:22;100241.22;;;22.32;71.93
74542;BME280;63015;45.378;20.360;2023-07-20T06:07:23;100236.00;;;22.30;72.14
74542;BME280;63015;45.378;20.360;2023-07-20T06:09:24;100240.09;;;22.20;71.76
74542;BME280;63015;45.378;20.360;2023-07-20T06:11:25;100238.28;;;22.38;72.06
74542;BME280;63015;45.378;20.360;2023-07-20T06:13:25;100233.50;;;22.45;71.76
74542;BME280;63015;45.378;20.360;2023-07-20T06:15:33;100239.41;;;22.50;72.20
74542;BME280;63015;45.378;20.360;2023-07-20T06:17:35;100235.81;;;22.51;71.64
74542;BME280;63015;45.378;20.360;2023-07-20T06:19:36;100233.69;;;22.58;71.46
74542;BME280;63015;45.378;20.360;2023-07-20T06:21:36;100236.28;;;22.59;71.43
74542;BME280;63015;45.378;20.360;2023-07-20T06:23:37;100239.75;;;22.77;70.76
74542;BME280;63015;45.378;20.360;2023-07-20T06:25:38;100241.28;;;22.81;70.55
74542;BME280;63015;45.378;20.360;2023-07-20T06:27:38;100234.44;;;22.77;70.68
74542;BME280;63015;45.378;20.360;2023-07-20T06:29:39;100237.19;;;22.92;69.87
74542;BME280;63015;45.378;20.360;2023-07-20T06:31:40;100234.44;;;22.93;70.09
74542;BME280;63015;45.378;20.360;2023-07-20T06:33:40;100226.28;;;22.96;69.74
74542;BME280;63015;45.378;20.360;2023-07-20T06:35:42;100229.88;;;22.79;70.41
74542;BME280;63015;45.378;20.360;2023-07-20T06:37:44;100232.28;;;23.00;69.64
74542;BME280;63015;45.378;20.360;2023-07-20T06:39:45;100237.75;;;22.81;70.05
74542;BME280;63015;45.378;20.360;2023-07-20T06:41:46;100245.66;;;22.98;69.35
74542;BME280;63015;45.378;20.360;2023-07-20T06:43:47;100253.28;;;23.05;69.27
74542;BME280;63015;45.378;20.360;2023-07-20T06:45:52;100257.50;;;23.09;69.12
74542;BME280;63015;45.378;20.360;2023-07-20T06:47:56;100252.16;;;23.09;69.50
74542;BME280;63015;45.378;20.360;2023-07-20T06:49:56;100252.72;;;23.15;69.55
74542;BME280;63015;45.378;20.360;2023-07-20T06:51:57;100248.00;;;23.21;69.38
74542;BME280;63015;45.378;20.360;2023-07-20T06:53:57;100251.44;;;23.23;69.18
74542;BME280;63015;45.378;20.360;2023-07-20T06:55:58;100251.25;;;23.26;69.30
74542;BME280;63015;45.378;20.360;2023-07-20T06:57:59;100254.50;;;23.31;69.38
74542;BME280;63015;45.378;20.360;2023-07-20T06:59:59;100253.66;;;23.30;69.41
74542;BME280;63015;45.378;20.360;2023-07-20T07:02:00;100246.28;;;23.36;69.18
74542;BME280;63015;45.378;20.360;2023-07-20T07:04:00;100235.19;;;23.43;68.88
74542;BME280;63015;45.378;20.360;2023-07-20T07:06:01;100235.28;;;23.42;68.80
74542;BME280;63015;45.378;20.360;2023-07-20T07:08:02;100241.91;;;23.35;68.78
74542;BME280;63015;45.378;20.360;2023-07-20T07:10:03;100241.91;;;23.35;68.86
74542;BME280;63015;45.378;20.360;2023-07-20T07:12:05;100237.53;;;23.34;68.82
74542;BME280;63015;45.378;20.360;2023-07-20T07:14:06;100230.13;;;23.39;68.61
74542;BME280;63015;45.378;20.360;2023-07-20T07:16:07;100237.75;;;23.45;68.43
74542;BME280;63015;45.378;20.360;2023-07-20T07:18:07;100239.88;;;23.54;68.09
74542;BME280;63015;45.378;20.360;2023-07-20T07:20:08;100230.63;;;23.61;68.22
74542;BME280;63015;45.378;20.360;2023-07-20T07:22:09;100234.13;;;23.62;68.52
74542;BME280;63015;45.378;20.360;2023-07-20T07:24:10;100220.66;;;23.65;68.43
74542;BME280;63015;45.378;20.360;2023-07-20T07:26:10;100227.22;;;23.74;68.19
74542;BME280;63015;45.378;20.360;2023-07-20T07:28:11;100238.41;;;23.64;68.52
74542;BME280;63015;45.378;20.360;2023-07-20T07:30:12;100225.78;;;23.68;67.89
74542;BME280;63015;45.378;20.360;2023-07-20T07:32:13;100220.56;;;23.67;68.06
74542;BME280;63015;45.378;20.360;2023-07-20T07:34:13;100223.72;;;23.73;68.23
74542;BME280;63015;45.378;20.360;2023-07-20T07:36:14;100234.59;;;23.69;68.26
74542;BME280;63015;45.378;20.360;2023-07-20T07:38:15;100234.59;;;23.69;68.50
74542;BME280;63015;45.378;20.360;2023-07-20T07:40:15;100228.22;;;23.57;68.67
74542;BME280;63015;45.378;20.360;2023-07-20T07:42:19;100240.97;;;23.66;68.29
74542;BME280;63015;45.378;20.360;2023-07-20T07:44:19;100232.53;;;23.74;67.90
74542;BME280;63015;45.378;20.360;2023-07-20T07:46:21;100243.22;;;23.88;68.00
74542;BME280;63015;45.378;20.360;2023-07-20T07:48:22;100241.41;;;23.89;68.26
74542;BME280;63015;45.378;20.360;2023-07-20T07:50:23;100246.16;;;24.00;68.03
74542;BME280;63015;45.378;20.360;2023-07-20T07:52:24;100249.22;;;24.22;67.67
74542;BME280;63015;45.378;20.360;2023-07-20T07:54:24;100251.81;;;24.38;67.02
74542;BME280;63015;45.378;20.360;2023-07-20T07:56:25;100246.66;;;24.50;66.54
74542;BME280;63015;45.378;20.360;2023-07-20T07:58:26;100243.16;;;24.63;65.68
74542;BME280;63015;45.378;20.360;2023-07-20T08:00:26;100248.19;;;24.83;65.51
74542;BME280;63015;45.378;20.360;2023-07-20T08:02:27;100242.44;;;25.03;64.65
74542;BME280;63015;45.378;20.360;2023-07-20T08:04:28;100247.16;;;25.12;64.74
74542;BME280;63015;45.378;20.360;2023-07-20T08:06:29;100238.06;;;25.44;64.24
74542;BME280;63015;45.378;20.360;2023-07-20T08:08:30;100247.09;;;25.69;62.66
74542;BME280;63015;45.378;20.360;2023-07-20T08:10:31;100249.13;;;25.78;62.43
74542;BME280;63015;45.378;20.360;2023-07-20T08:12:31;100249.56;;;25.85;62.47
74542;BME280;63015;45.378;20.360;2023-07-20T08:14:32;100252.72;;;26.04;62.35
74542;BME280;63015;45.378;20.360;2023-07-20T08:16:33;100255.75;;;25.72;62.55
74542;BME280;63015;45.378;20.360;2023-07-20T08:18:33;100249.03;;;25.92;62.48
74542;BME280;63015;45.378;20.360;2023-07-20T08:20:34;100251.41;;;25.97;61.97
74542;BME280;63015;45.378;20.360;2023-07-20T08:22:36;100244.06;;;26.01;61.80
74542;BME280;63015;45.378;20.360;2023-07-20T08:24:40;100246.44;;;26.18;60.89
74542;BME280;63015;45.378;20.360;2023-07-20T08:26:41;100244.63;;;26.19;61.20
74542;BME280;63015;45.378;20.360;2023-07-20T08:30:48;100250.97;;;25.90;62.15
74542;BME280;63015;45.378;20.360;2023-07-20T08:32:49;100247.31;;;25.91;62.24
74542;BME280;63015;45.378;20.360;2023-07-20T08:34:49;100245.00;;;26.00;61.67
74542;BME280;63015;45.378;20.360;2023-07-20T08:36:50;100242.38;;;26.13;61.18
74542;BME280;63015;45.378;20.360;2023-07-20T08:38:51;100245.41;;;25.93;61.78
74542;BME280;63015;45.378;20.360;2023-07-20T08:40:52;100248.84;;;25.83;62.06
74542;BME280;63015;45.378;20.360;2023-07-20T08:42:55;100253.31;;;25.95;62.20
74542;BME280;63015;45.378;20.360;2023-07-20T08:44:57;100250.28;;;26.14;61.40
74542;BME280;63015;45.378;20.360;2023-07-20T08:47:00;100253.69;;;26.16;60.92
74542;BME280;63015;45.378;20.360;2023-07-20T08:49:02;100251.22;;;26.13;61.41
74542;BME280;63015;45.378;20.360;2023-07-20T08:51:04;100260.84;;;26.16;61.49
74542;BME280;63015;45.378;20.360;2023-07-20T08:53:05;100264.38;;;26.16;61.10
74542;BME280;63015;45.378;20.360;2023-07-20T08:55:07;100267.78;;;26.18;61.55
74542;BME280;63015;45.378;20.360;2023-07-20T08:57:08;100264.59;;;26.26;60.90
74542;BME280;63015;45.378;20.360;2023-07-20T08:59:17;100263.94;;;26.22;60.94
74542;BME280;63015;45.378;20.360;2023-07-20T09:01:19;100265.72;;;25.96;62.33
74542;BME280;63015;45.378;20.360;2023-07-20T09:03:20;100264.41;;;26.02;61.78
74542;BME280;63015;45.378;20.360;2023-07-20T09:05:23;100268.44;;;26.09;62.01
74542;BME280;63015;45.378;20.360;2023-07-20T09:07:23;100266.53;;;26.11;62.05
74542;BME280;63015;45.378;20.360;2023-07-20T09:09:25;100267.06;;;26.42;61.20
74542;BME280;63015;45.378;20.360;2023-07-20T09:11:26;100259.22;;;26.52;60.90
74542;BME280;63015;45.378;20.360;2023-07-20T09:13:26;100260.41;;;26.61;60.17
74542;BME280;63015;45.378;20.360;2023-07-20T09:15:29;100257.09;;;26.57;60.71
74542;BME280;63015;45.378;20.360;2023-07-20T09:17:30;100266.53;;;26.75;60.22
74542;BME280;63015;45.378;20.360;2023-07-20T09:19:31;100263.28;;;26.96;59.32
74542;BME280;63015;45.378;20.360;2023-07-20T09:21:31;100258.59;;;27.11;59.34
74542;BME280;63015;45.378;20.360;2023-07-20T09:23:37;100260.22;;;27.38;58.50
74542;BME280;63015;45.378;20.360;2023-07-20T09:25:40;100259.34;;;27.50;58.29
74542;BME280;63015;45.378;20.360;2023-07-20T09:27:43;100261.19;;;27.61;57.79
74542;BME280;63015;45.378;20.360;2023-07-20T09:29:49;100267.28;;;27.87;55.66
74542;BME280;63015;45.378;20.360;2023-07-20T09:32:03;100269.31;;;28.31;55.29
74542;BME280;63015;45.378;20.360;2023-07-20T09:34:04;100266.03;;;28.16;55.33
74542;BME280;63015;45.378;20.360;2023-07-20T09:36:05;100265.28;;;28.14;55.14
74542;BME280;63015;45.378;20.360;2023-07-20T09:38:06;100264.47;;;28.36;54.21
74542;BME280;63015;45.378;20.360;2023-07-20T09:40:09;100268.34;;;28.20;53.33
74542;BME280;63015;45.378;20.360;2023-07-20T09:42:13;100263.16;;;28.76;53.50
74542;BME280;63015;45.378;20.360;2023-07-20T09:44:15;100252.28;;;28.32;53.71
74542;BME280;63015;45.378;20.360;2023-07-20T09:46:15;100253.13;;;28.89;53.04
74542;BME280;63015;45.378;20.360;2023-07-20T09:48:17;100247.59;;;29.13;52.87
74542;BME280;63015;45.378;20.360;2023-07-20T09:50:23;100247.59;;;29.36;51.71
74542;BME280;63015;45.378;20.360;2023-07-20T09:52:25;100243.16;;;29.46;51.80
74542;BME280;63015;45.378;20.360;2023-07-20T09:54:26;100252.41;;;29.53;50.89
74542;BME280;63015;45.378;20.360;2023-07-20T09:56:28;100242.69;;;29.41;51.32
74542;BME280;63015;45.378;20.360;2023-07-20T09:58:31;100242.50;;;29.54;51.11
74542;BME280;63015;45.378;20.360;2023-07-20T10:00:35;100256.84;;;29.43;51.05
74542;BME280;63015;45.378;20.360;2023-07-20T10:02:41;100253.84;;;29.79;50.53
74542;BME280;63015;45.378;20.360;2023-07-20T10:04:43;100249.13;;;29.71;50.76
74542;BME280;63015;45.378;20.360;2023-07-20T10:06:46;100255.78;;;29.88;50.32
74542;BME280;63015;45.378;20.360;2023-07-20T10:08:47;100263.75;;;29.78;50.88
74542;BME280;63015;45.378;20.360;2023-07-20T10:10:49;100256.38;;;29.92;50.07
74542;BME280;63015;45.378;20.360;2023-07-20T10:12:50;100260.91;;;29.91;49.53
74542;BME280;63015;45.378;20.360;2023-07-20T10:14:59;100260.63;;;29.94;49.22
74542;BME280;63015;45.378;20.360;2023-07-20T10:17:05;100253.38;;;30.37;49.51
74542;BME280;63015;45.378;20.360;2023-07-20T10:19:11;100249.78;;;30.79;48.54
74542;BME280;63015;45.378;20.360;2023-07-20T10:21:16;100247.91;;;31.20;48.39
74542;BME280;63015;45.378;20.360;2023-07-20T10:23:17;100250.56;;;31.10;47.22
74542;BME280;63015;45.378;20.360;2023-07-20T10:25:20;100245.34;;;31.09;46.98
74542;BME280;63015;45.378;20.360;2023-07-20T10:27:23;100245.91;;;31.22;47.30
74542;BME280;63015;45.378;20.360;2023-07-20T10:29:24;100249.47;;;31.32;47.09
74542;BME280;63015;45.378;20.360;2023-07-20T10:31:28;100248.47;;;31.14;46.56
74542;BME280;63015;45.378;20.360;2023-07-20T10:33:29;100252.84;;;31.25;45.85
74542;BME280;63015;45.378;20.360;2023-07-20T10:35:30;100244.44;;;31.69;45.45
74542;BME280;63015;45.378;20.360;2023-07-20T10:37:51;100246.09;;;31.89;44.76
74542;BME280;63015;45.378;20.360;2023-07-20T10:39:55;100242.56;;;30.48;45.46
74542;BME280;63015;45.378;20.360;2023-07-20T10:42:14;100241.53;;;31.60;44.45
74542;BME280;63015;45.378;20.360;2023-07-20T10:44:19;100233.78;;;30.87;44.97